Página principal
METAR-TAF:

METAR-TAF

Aeroportos :

Ardabil, Irão

latitude: 38-19-35N, longitude: 048-25-28E, altura: 1315 m

Observação actual do tempo

O boletim foi feito há 47 minutos, às 04:00 UTC
Vento 14 kt de su-sudoeste
Temperatura 2°C
Humidade 87%
Pressão 1018 hPa
Visibilidade 10 km ou mais
Poucas nuvensa uma altura de 3500 ft
Nuvens fragmentadasa uma altura de 20000 ft

METAR: OITL 140400Z 20014KT 9999 FEW035 BKN200 02/M00 Q1018

Hora: 08:17 (04:47 UTC)


TAF: em falta

Observações e previsões do tempo de mais de 4000 aeroportos (mensagens METAR e TAF).

As estações disponíveis são os pontos amarelos e vermelhos sobre o mapa.

Mova o rato sobre o mapa para ver o nome da estação.

Depois clique no ponto para visualizar as observações e previsões meteorológicas.

Para alterar o mapa : clique nos botões verdes com uma cruz preta para aumentar o zoom; no botão verde com uma pitada de zoom; ou nas setas verdes para mapas adjacentes.


METAR-TAF: